Terminal Aerodrome Forecast
Issued by NWS Salt Lake City, UT

Home | Current Version | Previous Version | Text Only | Print | Product List | Glossary On
Versions: 1 2 3 4 5 6 7 8 9 10 11 12 13 14 15 16 17 18 19 20 21 22 23 24 25 26 27 28 29 30 31 32 33 34 35
000
FTUS45 KSLC 272330
TAFCDC
TAF
KCDC 272330Z 2800/2824 VRB04KT P6SM SKC
     FM280300 VRB04KT P6SM SCT060 BKN150
     FM281800 22007KT P6SM FEW050 BKN080=

USA.gov is the U.S. government's official web portal to all federal, state and local government web resources and services.